Bad Nation, South Dakota
Current Conditions -  °F | °C
As of 1:53 AM on Tuesday 27 Jan 2015 (Local Time) from KICR Reporting Station
Clear Clear  
Wind Chill: 35°   Ceiling: Unl
Heat Index: 39°   Visibility: 10mi
Dew Point: 30°   Wind: 6mph
Humidity: 70%   Direction: 150°SSE
Pressure: 30"   Gusts: NA
Location:  43.5595°N, 100.408°W
Report Text: KICR 270753Z AUTO 15005KT 10SM CLR 04/M01 A3000 RMK AO2 SLP162 T00391011
Loading
Personal Weather Stations






























Interactive Weather Map New forecast layout! Learn more

10-Day Weather Forecast

Advertisements
Track Severe Weather on mobile